createdAt,value
2023-02-14T00:00:41.368Z,73.38
2023-02-14T00:01:45.773Z,73.14
2023-02-14T00:02:48.738Z,73.10
2023-02-14T00:03:52.464Z,73.20
2023-02-14T00:04:56.184Z,74.49
2023-02-14T00:05:59.072Z,74.34
2023-02-14T00:07:02.672Z,74.89
2023-02-14T00:08:05.279Z,74.97
2023-02-14T00:09:12.088Z,75.17
2023-02-14T00:10:16.198Z,75.95
2023-02-14T00:11:20.109Z,75.45
2023-02-14T00:12:22.663Z,75.09
2023-02-14T00:13:26.316Z,75.70
2023-02-14T00:14:47.549Z,75.19
2023-02-14T00:15:50.070Z,74.89
2023-02-14T00:16:53.901Z,75.46
2023-02-14T00:17:59.805Z,75.37
2023-02-14T00:19:06.132Z,75.99
2023-02-14T00:20:09.409Z,76.50
2023-02-14T00:21:12.979Z,75.70
2023-02-14T00:22:15.571Z,75.46
2023-02-14T00:23:19.198Z,75.21
2023-02-14T00:24:23.311Z,75.11
2023-02-14T00:25:28.699Z,75.23
2023-02-14T00:26:31.485Z,75.70
2023-02-14T00:27:35.145Z,76.39
2023-02-14T00:28:37.747Z,76.10
2023-02-14T00:29:41.727Z,76.68
2023-02-14T00:30:44.566Z,77.00
2023-02-14T00:31:48.509Z,76.51
2023-02-14T00:32:51.472Z,76.30
2023-02-14T00:33:56.419Z,76.79
2023-02-14T00:34:59.995Z,76.30
2023-02-14T00:36:03.604Z,76.31
2023-02-14T00:37:07.065Z,75.77
2023-02-14T00:38:09.584Z,76.18
2023-02-14T00:39:15.037Z,76.19
2023-02-14T00:40:18.659Z,76.71
2023-02-14T00:41:23.516Z,76.36
2023-02-14T00:42:27.130Z,75.86
2023-02-14T00:43:29.709Z,76.33
2023-02-14T00:44:33.410Z,75.61
2023-02-14T00:45:36.349Z,75.38
2023-02-14T00:46:40.549Z,74.81
2023-02-14T00:47:44.354Z,75.93
2023-02-14T00:48:47.201Z,75.97
2023-02-14T00:49:50.997Z,76.30
2023-02-14T00:50:53.512Z,75.66
2023-02-14T00:51:57.298Z,75.52
2023-02-14T00:52:59.928Z,75.43
2023-02-14T00:54:03.591Z,75.14
2023-02-14T00:55:06.674Z,74.91
2023-02-14T00:56:10.377Z,74.65
2023-02-14T00:57:15.664Z,75.17
2023-02-14T00:58:18.336Z,75.13
2023-02-14T00:59:22.450Z,75.00
2023-02-14T01:00:25.142Z,75.00
2023-02-14T01:01:29.600Z,76.55
2023-02-14T01:02:33.407Z,77.54
2023-02-14T01:03:36.241Z,77.65
2023-02-14T01:04:39.886Z,77.25
2023-02-14T01:05:42.547Z,77.22
2023-02-14T01:06:46.267Z,76.90
2023-02-14T01:07:48.595Z,77.45
2023-02-14T01:08:52.302Z,77.46
2023-02-14T01:09:54.842Z,77.65
2023-02-14T01:10:59.026Z,77.12
2023-02-14T01:12:02.656Z,77.79
2023-02-14T01:13:07.148Z,77.44
2023-02-14T01:14:10.963Z,77.11
2023-02-14T01:15:13.337Z,77.08
2023-02-14T01:16:20.217Z,77.69
2023-02-14T01:17:22.743Z,77.04
2023-02-14T01:18:26.287Z,77.71
2023-02-14T01:19:29.958Z,78.27
2023-02-14T01:20:33.013Z,78.80
2023-02-14T01:21:36.821Z,78.55
2023-02-14T01:22:39.809Z,78.25
2023-02-14T01:23:44.351Z,78.26
2023-02-14T01:24:47.238Z,77.78
2023-02-14T01:25:51.221Z,77.80
2023-02-14T01:26:53.791Z,77.57
2023-02-14T01:27:57.590Z,77.46
2023-02-14T01:29:01.900Z,77.76
2023-02-14T01:30:06.587Z,77.83
2023-02-14T01:31:12.441Z,77.86
2023-02-14T01:32:16.393Z,78.00
2023-02-14T01:33:18.918Z,77.60
2023-02-14T01:34:22.777Z,77.37
2023-02-14T01:35:25.557Z,77.28
2023-02-14T01:36:30.687Z,77.67
2023-02-14T01:37:33.079Z,77.49
2023-02-14T01:38:37.058Z,77.57
2023-02-14T01:39:40.878Z,78.18
2023-02-14T01:40:44.109Z,78.15
2023-02-14T01:41:49.928Z,77.71
2023-02-14T01:42:52.634Z,76.83
2023-02-14T01:43:59.911Z,76.02
2023-02-14T01:45:09.417Z,75.77
2023-02-14T01:46:12.059Z,76.14
2023-02-14T01:47:16.069Z,76.64
2023-02-14T01:48:21.995Z,76.17
2023-02-14T01:49:29.134Z,75.70
2023-02-14T01:50:36.962Z,75.75
2023-02-14T01:51:45.778Z,75.69
2023-02-14T01:52:51.678Z,76.27
2023-02-14T01:53:55.756Z,75.93
2023-02-14T01:55:02.411Z,75.81
2023-02-14T01:56:10.065Z,75.74
2023-02-14T01:57:18.373Z,76.28
2023-02-14T01:58:25.405Z,76.21
2023-02-14T01:59:32.364Z,76.23
2023-02-14T02:00:57.738Z,75.96
2023-02-14T02:02:01.593Z,75.77
2023-02-14T02:03:05.720Z,75.05
2023-02-14T02:04:13.971Z,74.79
2023-02-14T02:05:17.666Z,74.64
2023-02-14T02:06:27.809Z,74.45
2023-02-14T02:07:30.623Z,74.62
2023-02-14T02:08:38.732Z,74.14
2023-02-14T02:09:48.019Z,74.55
2023-02-14T02:10:51.692Z,74.37
2023-02-14T02:11:54.257Z,74.42
2023-02-14T02:13:01.997Z,74.68
2023-02-14T02:14:05.440Z,74.91
2023-02-14T02:15:09.860Z,75.29
2023-02-14T02:16:27.316Z,75.92
2023-02-14T02:17:43.189Z,76.57
2023-02-14T02:18:58.454Z,76.63
2023-02-14T02:20:28.846Z,76.62
2023-02-14T02:22:10.774Z,76.55
2023-02-14T02:23:38.873Z,76.41
2023-02-14T02:24:55.143Z,75.99
2023-02-14T02:26:34.896Z,75.38
2023-02-14T02:28:20.253Z,75.48
2023-02-14T02:29:59.466Z,75.17
2023-02-14T02:31:22.430Z,74.74
2023-02-14T02:32:47.036Z,75.13
2023-02-14T02:34:21.640Z,74.90
2023-02-14T02:35:45.306Z,75.50
2023-02-14T02:37:10.209Z,75.15
2023-02-14T02:38:28.126Z,75.72
2023-02-14T02:39:45.516Z,76.12
2023-02-14T02:40:58.504Z,77.31
2023-02-14T02:42:10.042Z,76.78
2023-02-14T02:43:28.176Z,76.35
2023-02-14T02:44:40.865Z,76.34
2023-02-14T02:46:11.394Z,76.12
2023-02-14T02:47:25.129Z,76.02
2023-02-14T02:48:34.897Z,75.53
2023-02-14T02:50:04.267Z,75.48
2023-02-14T02:51:31.395Z,76.07
2023-02-14T02:53:01.471Z,76.68
2023-02-14T02:54:14.544Z,76.93
2023-02-14T02:55:25.276Z,77.31
2023-02-14T02:56:47.474Z,77.11
2023-02-14T02:57:54.958Z,77.20
2023-02-14T02:59:01.426Z,77.69
2023-02-14T03:00:06.828Z,77.57
2023-02-14T03:01:12.743Z,77.65
2023-02-14T03:02:21.234Z,77.88
2023-02-14T03:03:44.276Z,77.17
2023-02-14T03:04:54.379Z,77.55
2023-02-14T03:05:58.218Z,77.27
2023-02-14T03:07:24.125Z,77.35
2023-02-14T03:08:26.778Z,77.14
2023-02-14T03:09:52.985Z,76.64
2023-02-14T03:10:57.084Z,76.24
2023-02-14T03:12:13.088Z,76.33
2023-02-14T03:13:45.010Z,75.46
2023-02-14T03:14:52.124Z,75.80
2023-02-14T03:16:37.001Z,75.38
2023-02-14T03:17:50.006Z,74.87
2023-02-14T03:19:26.673Z,75.46
2023-02-14T03:20:40.878Z,75.45
2023-02-14T03:21:52.457Z,75.74
2023-02-14T03:23:08.069Z,76.75
2023-02-14T03:24:18.378Z,76.78
2023-02-14T03:25:37.348Z,77.22
2023-02-14T03:26:48.197Z,77.03
2023-02-14T03:27:59.968Z,76.45
2023-02-14T03:29:17.057Z,76.60
2023-02-14T03:30:29.481Z,77.38
2023-02-14T03:31:37.713Z,77.57
2023-02-14T03:32:46.396Z,78.15
2023-02-14T03:33:57.502Z,78.09
2023-02-14T03:35:10.942Z,77.68
2023-02-14T03:36:17.089Z,77.21
2023-02-14T03:37:26.021Z,78.15
2023-02-14T03:38:34.982Z,78.17
2023-02-14T03:39:45.838Z,78.02
2023-02-14T03:40:54.824Z,77.10
2023-02-14T03:42:06.258Z,76.46
2023-02-14T03:43:11.431Z,76.22
2023-02-14T03:44:20.902Z,75.69
2023-02-14T03:45:29.843Z,75.19
2023-02-14T03:46:39.440Z,75.21
2023-02-14T03:47:43.761Z,75.25
2023-02-14T03:48:49.585Z,75.93
2023-02-14T03:49:56.085Z,75.39
2023-02-14T03:51:01.829Z,74.94
2023-02-14T03:52:05.966Z,75.58
2023-02-14T03:53:11.329Z,75.75
2023-02-14T03:54:16.833Z,75.85
2023-02-14T03:55:28.419Z,77.18
2023-02-14T03:56:36.645Z,77.14
2023-02-14T03:57:49.098Z,77.33
2023-02-14T03:58:56.026Z,77.39
2023-02-14T04:00:00.800Z,77.60
2023-02-14T04:01:09.309Z,77.47
2023-02-14T04:02:17.010Z,77.27
2023-02-14T04:03:21.320Z,78.23
2023-02-14T04:04:30.347Z,78.14
2023-02-14T04:05:33.848Z,77.38
2023-02-14T04:06:37.835Z,77.56
2023-02-14T04:07:46.445Z,77.42
2023-02-14T04:08:50.110Z,77.95
2023-02-14T04:09:54.104Z,77.93
2023-02-14T04:11:02.167Z,77.24
2023-02-14T04:12:05.246Z,76.54
2023-02-14T04:13:09.021Z,76.21
2023-02-14T04:14:11.563Z,76.51
2023-02-14T04:15:16.282Z,76.26
2023-02-14T04:16:18.882Z,76.15
2023-02-14T04:17:39.970Z,76.54
2023-02-14T04:19:00.610Z,76.51
2023-02-14T04:20:04.868Z,76.36
2023-02-14T04:21:07.392Z,77.30
2023-02-14T04:22:11.037Z,77.04
2023-02-14T04:23:13.910Z,77.43
2023-02-14T04:24:17.495Z,77.34
2023-02-14T04:25:22.709Z,76.88
2023-02-14T04:26:26.317Z,76.91
2023-02-14T04:27:29.345Z,77.06
2023-02-14T04:28:33.471Z,76.69
2023-02-14T04:29:38.211Z,76.62
2023-02-14T04:30:41.891Z,76.49
2023-02-14T04:31:44.531Z,77.04
2023-02-14T04:32:48.368Z,76.50
2023-02-14T04:33:51.464Z,76.30
2023-02-14T04:34:55.145Z,75.79
2023-02-14T04:35:57.607Z,75.89
2023-02-14T04:37:01.346Z,76.54
2023-02-14T04:38:05.706Z,76.48
2023-02-14T04:39:08.070Z,76.36
2023-02-14T04:40:12.743Z,76.03
2023-02-14T04:41:17.054Z,76.26
2023-02-14T04:42:20.628Z,76.93
2023-02-14T04:43:23.703Z,77.28
2023-02-14T04:44:27.520Z,77.13
2023-02-14T04:45:29.989Z,77.44
2023-02-14T04:46:33.824Z,77.57
2023-02-14T04:47:37.635Z,78.04
2023-02-14T04:48:40.319Z,78.44
2023-02-14T04:49:44.033Z,78.49
2023-02-14T04:50:52.031Z,78.73
2023-02-14T04:51:55.898Z,78.59
2023-02-14T04:52:59.859Z,78.18
2023-02-14T04:54:02.813Z,78.17
2023-02-14T04:55:06.956Z,78.21
2023-02-14T04:56:09.781Z,78.26
2023-02-14T04:57:15.012Z,78.16
2023-02-14T04:58:17.785Z,78.45
2023-02-14T04:59:23.333Z,78.65
2023-02-14T05:00:27.295Z,78.18
2023-02-14T05:01:30.760Z,77.90
2023-02-14T05:02:33.736Z,77.60
2023-02-14T05:03:37.376Z,77.57
2023-02-14T05:04:39.887Z,78.10
2023-02-14T05:05:43.708Z,78.01
2023-02-14T05:06:46.144Z,78.59
2023-02-14T05:07:49.854Z,78.01
2023-02-14T05:08:52.375Z,78.20
2023-02-14T05:09:56.183Z,77.95
2023-02-14T05:10:58.825Z,77.58
2023-02-14T05:12:02.843Z,77.26
2023-02-14T05:13:08.391Z,77.79
2023-02-14T05:14:10.836Z,78.16
2023-02-14T05:15:14.470Z,77.99
2023-02-14T05:16:17.110Z,78.23
2023-02-14T05:17:20.613Z,77.86
2023-02-14T05:18:24.332Z,77.50
2023-02-14T05:19:27.034Z,77.86
2023-02-14T05:20:30.986Z,77.71
2023-02-14T05:21:33.515Z,78.16
2023-02-14T05:22:36.946Z,78.32
2023-02-14T05:23:39.464Z,78.67
2023-02-14T05:24:43.028Z,78.36
2023-02-14T05:25:47.658Z,79.06
2023-02-14T05:26:51.174Z,78.95
2023-02-14T05:27:54.524Z,78.36
2023-02-14T05:28:58.525Z,78.31
2023-02-14T05:30:02.414Z,78.51
2023-02-14T05:31:05.259Z,78.27
2023-02-14T05:32:08.830Z,78.40
2023-02-14T05:33:11.559Z,78.00
2023-02-14T05:34:15.430Z,77.94
2023-02-14T05:35:17.931Z,77.89
2023-02-14T05:36:21.700Z,78.38
2023-02-14T05:37:25.268Z,78.40
2023-02-14T05:38:28.914Z,78.70
2023-02-14T05:39:31.945Z,78.78
2023-02-14T05:40:35.414Z,78.38
2023-02-14T05:42:40.241Z,79.04
2023-02-14T05:43:43.682Z,79.56
2023-02-14T05:44:48.868Z,78.39
2023-02-14T05:45:51.255Z,78.48
2023-02-14T05:46:55.336Z,77.97
2023-02-14T05:47:57.946Z,78.30
2023-02-14T05:49:01.439Z,77.26
2023-02-14T05:50:04.481Z,77.67
2023-02-14T05:51:09.879Z,77.21
2023-02-14T05:52:12.349Z,77.99
2023-02-14T05:53:15.931Z,77.63
2023-02-14T05:54:18.610Z,77.33
2023-02-14T05:57:46.455Z,77.92
2023-02-14T05:58:49.230Z,78.34
2023-02-14T05:59:54.279Z,78.44
2023-02-14T06:00:59.768Z,78.44
2023-02-14T06:02:03.394Z,78.72
2023-02-14T06:03:06.024Z,79.07
2023-02-14T06:04:12.684Z,79.26
2023-02-14T06:05:18.376Z,79.61
2023-02-14T06:06:21.765Z,79.31
2023-02-14T06:07:24.661Z,78.44
2023-02-14T06:08:28.501Z,79.06
2023-02-14T06:09:31.953Z,78.62
2023-02-14T06:10:36.394Z,78.83
2023-02-14T06:11:42.021Z,78.63
2023-02-14T06:12:45.988Z,78.28
2023-02-14T06:13:49.344Z,78.85
2023-02-14T06:14:54.669Z,78.79
2023-02-14T06:15:58.586Z,79.15
2023-02-14T06:17:02.243Z,79.39
2023-02-14T06:18:06.902Z,79.43
2023-02-14T06:19:10.863Z,79.24
2023-02-14T06:20:15.139Z,78.54
2023-02-14T06:21:18.666Z,78.38
2023-02-14T06:22:22.696Z,79.08
2023-02-14T06:23:26.447Z,78.94
2023-02-14T06:24:29.985Z,79.25
2023-02-14T06:25:32.781Z,79.16
2023-02-14T06:26:36.267Z,79.07
2023-02-14T06:27:40.178Z,78.48
2023-02-14T06:28:44.144Z,78.50
2023-02-14T06:29:47.384Z,79.03
2023-02-14T06:30:53.082Z,79.02
2023-02-14T06:31:55.746Z,79.47
2023-02-14T06:33:00.363Z,79.10
2023-02-14T06:34:03.062Z,79.11
2023-02-14T06:35:08.177Z,79.65
2023-02-14T06:36:11.403Z,79.41
2023-02-14T06:37:15.273Z,79.52
2023-02-14T06:38:18.849Z,79.84
2023-02-14T06:39:21.385Z,79.67
2023-02-14T06:40:25.588Z,79.25
2023-02-14T06:41:28.111Z,79.07
2023-02-14T06:42:31.895Z,78.71
2023-02-14T06:43:37.138Z,78.73
2023-02-14T06:44:40.798Z,79.09
2023-02-14T06:45:43.866Z,78.87
2023-02-14T06:46:49.968Z,79.49
2023-02-14T06:47:52.680Z,79.39
2023-02-14T06:48:56.288Z,79.14
2023-02-14T06:50:00.189Z,78.77
2023-02-14T06:51:07.476Z,79.01
2023-02-14T06:52:10.546Z,78.55
2023-02-14T06:53:14.947Z,79.68
2023-02-14T06:54:18.000Z,79.55
2023-02-14T06:55:23.102Z,79.26
2023-02-14T06:56:27.171Z,79.26
2023-02-14T06:57:30.600Z,79.29
2023-02-14T06:58:33.576Z,79.69
2023-02-14T06:59:38.413Z,80.46
2023-02-14T07:00:43.842Z,79.69
2023-02-14T07:01:58.866Z,78.95
2023-02-14T07:03:04.444Z,79.01
2023-02-14T07:04:09.574Z,79.21
2023-02-14T07:05:16.410Z,78.68
2023-02-14T07:06:19.863Z,78.92
2023-02-14T07:07:27.565Z,79.18
2023-02-14T07:08:31.907Z,79.16
2023-02-14T07:09:35.584Z,78.95
2023-02-14T07:10:41.946Z,78.62
2023-02-14T07:11:45.975Z,78.21
2023-02-14T07:12:53.950Z,78.89
2023-02-14T07:14:04.647Z,79.31
2023-02-14T07:15:09.099Z,79.10
2023-02-14T07:16:12.298Z,78.80
2023-02-14T07:17:20.030Z,78.42
2023-02-14T07:18:28.081Z,78.48
2023-02-14T07:19:31.614Z,78.39
2023-02-14T07:20:35.429Z,78.45
2023-02-14T07:21:40.936Z,78.35
2023-02-14T07:22:48.897Z,79.03
2023-02-14T07:23:52.255Z,79.49
2023-02-14T07:24:56.033Z,79.34
2023-02-14T07:26:01.460Z,79.00
2023-02-14T07:27:05.092Z,78.77
2023-02-14T07:28:08.971Z,78.52
2023-02-14T07:29:12.705Z,78.56
2023-02-14T07:30:19.211Z,78.38
2023-02-14T07:31:26.569Z,78.26
2023-02-14T07:32:32.268Z,77.81
2023-02-14T07:33:35.125Z,77.48
2023-02-14T07:34:39.662Z,77.53
2023-02-14T07:35:48.133Z,77.16
2023-02-14T07:36:54.401Z,76.63
2023-02-14T07:38:05.847Z,75.76
2023-02-14T07:39:14.686Z,75.65
2023-02-14T07:40:38.283Z,75.82
2023-02-14T07:41:43.192Z,75.71
2023-02-14T07:42:55.954Z,76.03
2023-02-14T07:44:05.089Z,76.22
2023-02-14T07:45:21.017Z,75.57
2023-02-14T07:46:25.152Z,75.49
2023-02-14T07:47:31.037Z,75.62
2023-02-14T07:48:35.223Z,75.62
2023-02-14T07:49:39.435Z,75.54
2023-02-14T07:50:43.878Z,75.09
2023-02-14T07:51:57.748Z,74.78
2023-02-14T07:53:03.542Z,74.64
2023-02-14T07:54:10.540Z,74.67
2023-02-14T07:55:19.259Z,74.81
2023-02-14T07:56:25.414Z,74.62
2023-02-14T07:57:28.230Z,74.11
2023-02-14T07:58:38.128Z,74.61
2023-02-14T07:59:41.502Z,75.06
2023-02-14T08:00:48.931Z,75.28
2023-02-14T08:01:55.517Z,75.18
2023-02-14T08:03:01.284Z,74.84
2023-02-14T08:04:07.290Z,74.62
2023-02-14T08:05:15.712Z,75.08
2023-02-14T08:06:23.029Z,74.60
2023-02-14T08:07:30.115Z,74.24
2023-02-14T08:08:34.682Z,73.48
2023-02-14T08:09:44.555Z,73.01
2023-02-14T08:11:01.502Z,73.33
2023-02-14T08:12:30.648Z,72.46
2023-02-14T08:13:37.081Z,71.12
2023-02-14T08:14:44.781Z,70.61
2023-02-14T08:16:06.966Z,69.01
2023-02-14T08:17:13.678Z,67.70
2023-02-14T08:18:21.647Z,65.25
2023-02-14T08:19:30.296Z,64.54
2023-02-14T08:20:34.560Z,62.87
2023-02-14T08:21:42.859Z,62.52
2023-02-14T08:22:46.214Z,61.40
2023-02-14T08:23:51.564Z,60.62
2023-02-14T08:25:01.523Z,60.62
2023-02-14T08:26:06.483Z,60.29
2023-02-14T08:27:10.322Z,59.40
2023-02-14T08:28:15.430Z,58.73
2023-02-14T08:29:21.134Z,59.10
2023-02-14T08:30:26.015Z,58.72
2023-02-14T08:31:35.939Z,58.91
2023-02-14T08:32:39.281Z,58.57
2023-02-14T08:33:47.483Z,59.43
2023-02-14T08:34:52.429Z,59.51
2023-02-14T08:35:56.269Z,60.40
2023-02-14T08:37:01.255Z,60.76
2023-02-14T08:38:10.483Z,60.20
2023-02-14T08:39:15.251Z,59.98
2023-02-14T08:40:25.552Z,59.78
2023-02-14T08:41:33.318Z,59.88
2023-02-14T08:42:35.993Z,60.00
2023-02-14T08:43:42.855Z,59.19
2023-02-14T08:44:45.938Z,59.60
2023-02-14T08:45:57.395Z,59.96
2023-02-14T08:47:02.685Z,59.98
2023-02-14T08:48:12.011Z,60.72
2023-02-14T08:49:17.068Z,60.43
2023-02-14T08:50:24.210Z,61.10
2023-02-14T08:51:27.940Z,61.08
2023-02-14T08:52:32.553Z,61.00
2023-02-14T08:53:38.535Z,61.72
2023-02-14T08:54:43.941Z,62.70
2023-02-14T08:55:51.080Z,62.47
2023-02-14T08:56:57.158Z,62.04
2023-02-14T08:58:03.816Z,61.38
2023-02-14T08:59:09.783Z,61.84
2023-02-14T09:00:14.645Z,61.38
2023-02-14T09:01:22.504Z,62.16
2023-02-14T09:02:27.126Z,61.84
2023-02-14T09:03:31.423Z,61.68
2023-02-14T09:04:35.537Z,61.25
2023-02-14T09:05:43.875Z,61.33
2023-02-14T09:06:50.055Z,62.22
2023-02-14T09:07:56.099Z,62.67
2023-02-14T09:09:02.567Z,62.66
2023-02-14T09:10:06.230Z,63.14
2023-02-14T09:11:12.896Z,63.57
2023-02-14T09:12:18.818Z,63.44
2023-02-14T09:13:24.810Z,63.33
2023-02-14T09:14:31.172Z,63.49
2023-02-14T09:15:37.154Z,63.01
2023-02-14T09:16:41.721Z,63.24
2023-02-14T09:17:45.143Z,63.90
2023-02-14T09:18:51.674Z,63.08
2023-02-14T09:20:11.364Z,63.07
2023-02-14T09:21:21.688Z,62.26
2023-02-14T09:22:25.856Z,62.25
2023-02-14T09:23:29.917Z,62.23
2023-02-14T09:24:39.100Z,62.08
2023-02-14T09:25:44.572Z,62.88
2023-02-14T09:26:48.426Z,62.66
2023-02-14T09:27:58.169Z,62.31
2023-02-14T09:29:01.524Z,62.40
2023-02-14T09:30:06.306Z,62.85
2023-02-14T09:31:12.014Z,62.59
2023-02-14T09:32:18.440Z,61.43
2023-02-14T09:33:21.563Z,60.99
2023-02-14T09:34:45.418Z,61.13
2023-02-14T09:35:50.735Z,61.26
2023-02-14T09:37:16.258Z,61.50
2023-02-14T09:38:23.206Z,60.62
2023-02-14T09:39:28.252Z,60.76
2023-02-14T09:40:34.979Z,60.34
2023-02-14T09:42:05.878Z,60.45
2023-02-14T09:43:20.153Z,60.45
2023-02-14T09:44:29.621Z,60.39
2023-02-14T09:45:35.619Z,60.87
2023-02-14T09:46:43.877Z,60.94
2023-02-14T09:47:55.584Z,60.38
2023-02-14T09:49:01.825Z,59.80
2023-02-14T09:50:14.600Z,60.53
2023-02-14T09:51:20.564Z,59.94
2023-02-14T09:52:29.895Z,59.33
2023-02-14T09:53:36.771Z,59.14
2023-02-14T09:54:43.304Z,59.00
2023-02-14T09:55:56.706Z,60.17
2023-02-14T09:57:04.796Z,60.34
2023-02-14T09:58:17.777Z,60.54
2023-02-14T09:59:27.751Z,60.18
2023-02-14T10:00:39.489Z,59.70
2023-02-14T10:01:47.628Z,59.55
2023-02-14T10:03:03.024Z,58.71
2023-02-14T10:04:21.446Z,59.32
2023-02-14T10:05:29.005Z,59.39
2023-02-14T10:06:47.068Z,58.96
2023-02-14T10:07:59.483Z,59.30
2023-02-14T10:09:13.448Z,59.12
2023-02-14T10:10:24.546Z,59.75
2023-02-14T10:11:30.372Z,59.37
2023-02-14T10:12:40.152Z,58.26
2023-02-14T10:13:47.692Z,58.24
2023-02-14T10:14:54.417Z,58.38
2023-02-14T10:16:04.351Z,57.91
2023-02-14T10:17:10.660Z,57.46
2023-02-14T10:18:22.126Z,56.65
2023-02-14T10:19:30.055Z,57.01
2023-02-14T10:20:56.068Z,56.82
2023-02-14T10:22:10.315Z,58.40
2023-02-14T10:24:06.972Z,57.43
2023-02-14T10:25:26.066Z,57.26
2023-02-14T10:26:38.398Z,57.21
2023-02-14T10:27:47.263Z,57.24
2023-02-14T10:28:54.663Z,57.47
2023-02-14T10:30:03.634Z,57.08
2023-02-14T10:31:20.834Z,58.27
2023-02-14T10:32:35.765Z,57.95
2023-02-14T10:33:44.770Z,56.75
2023-02-14T10:34:50.840Z,56.49
2023-02-14T10:36:02.010Z,55.95
2023-02-14T10:37:30.838Z,56.75
2023-02-14T10:38:48.881Z,56.42
2023-02-14T10:40:05.313Z,57.33
2023-02-14T10:41:23.574Z,56.71
2023-02-14T10:42:37.147Z,57.26
2023-02-14T10:43:52.925Z,57.20
2023-02-14T10:45:07.680Z,57.26
2023-02-14T10:46:23.380Z,57.58
2023-02-14T10:47:50.329Z,57.43
2023-02-14T10:49:03.037Z,57.33
2023-02-14T10:50:17.726Z,58.25
2023-02-14T10:51:33.431Z,57.67
2023-02-14T10:52:49.020Z,58.27
2023-02-14T10:54:05.205Z,57.74
2023-02-14T10:55:32.506Z,57.17
2023-02-14T10:56:46.166Z,56.45
2023-02-14T10:57:55.889Z,56.83
2023-02-14T10:59:36.786Z,56.04
2023-02-14T11:00:53.735Z,55.21
2023-02-14T11:02:07.736Z,54.15
2023-02-14T11:03:15.874Z,54.69
2023-02-14T11:04:22.166Z,55.46
2023-02-14T11:05:32.832Z,56.71
2023-02-14T11:06:37.792Z,56.44
2023-02-14T11:07:46.777Z,56.33
2023-02-14T11:08:50.740Z,56.60
2023-02-14T11:09:58.289Z,56.73
2023-02-14T11:11:07.602Z,56.87
2023-02-14T11:12:11.683Z,56.41
2023-02-14T11:13:34.880Z,56.36
2023-02-14T11:14:40.741Z,56.14
2023-02-14T11:15:52.084Z,56.66
2023-02-14T11:16:58.271Z,56.29
2023-02-14T11:18:19.258Z,55.79
2023-02-14T11:19:28.454Z,56.31
2023-02-14T11:20:32.545Z,56.57
2023-02-14T11:21:40.742Z,56.33
2023-02-14T11:22:44.975Z,55.33
2023-02-14T11:23:51.427Z,55.41
2023-02-14T11:25:05.211Z,55.22
2023-02-14T11:26:22.865Z,55.48
2023-02-14T11:27:26.670Z,55.79
2023-02-14T11:28:30.466Z,55.64
2023-02-14T11:29:37.975Z,56.22
2023-02-14T11:30:45.985Z,55.74
2023-02-14T11:31:51.543Z,56.03
2023-02-14T11:32:56.539Z,55.78
2023-02-14T11:34:00.243Z,55.30
2023-02-14T11:35:07.182Z,56.12
2023-02-14T11:36:17.734Z,55.52
2023-02-14T11:37:34.108Z,56.28
2023-02-14T11:38:40.233Z,55.55
2023-02-14T11:39:45.210Z,55.00
2023-02-14T11:40:59.432Z,55.31
2023-02-14T11:42:09.908Z,55.61
2023-02-14T11:43:32.999Z,55.05
2023-02-14T11:44:44.100Z,55.08
2023-02-14T11:45:49.617Z,54.15
2023-02-14T11:46:54.490Z,53.96
2023-02-14T11:48:24.847Z,54.86
2023-02-14T11:49:39.774Z,54.68
2023-02-14T11:50:45.475Z,54.56
2023-02-14T11:51:50.374Z,55.22
2023-02-14T11:52:57.275Z,55.00
2023-02-14T11:54:16.295Z,54.12
2023-02-14T11:55:31.482Z,54.03
2023-02-14T11:56:56.269Z,53.49
2023-02-14T11:58:03.757Z,54.34
2023-02-14T11:59:10.920Z,53.26
2023-02-14T12:00:19.122Z,52.92
2023-02-14T12:01:26.595Z,52.50
2023-02-14T12:02:39.380Z,52.00
2023-02-14T12:03:47.717Z,53.84
2023-02-14T12:04:57.685Z,54.13
2023-02-14T12:06:07.461Z,54.43
2023-02-14T12:07:19.460Z,54.10
2023-02-14T12:08:30.644Z,54.63
2023-02-14T12:09:42.971Z,54.53
2023-02-14T12:11:03.320Z,54.11
2023-02-14T12:12:23.956Z,54.84
2023-02-14T12:13:33.254Z,54.37
2023-02-14T12:14:48.452Z,55.25
2023-02-14T12:16:37.498Z,53.49
2023-02-14T12:17:49.427Z,54.46
2023-02-14T12:18:57.681Z,54.38
2023-02-14T12:20:10.813Z,54.22
2023-02-14T12:21:32.117Z,54.74
2023-02-14T12:22:47.938Z,55.13
2023-02-14T12:24:01.929Z,55.00
2023-02-14T12:25:18.193Z,54.71
2023-02-14T12:26:31.954Z,56.11
2023-02-14T12:27:48.921Z,56.40
2023-02-14T12:29:02.609Z,57.07
2023-02-14T12:30:15.031Z,56.32
2023-02-14T12:31:22.769Z,54.11
2023-02-14T12:32:31.186Z,54.82
2023-02-14T12:33:34.003Z,55.95
2023-02-14T12:34:41.036Z,55.39
2023-02-14T12:35:57.216Z,55.30
2023-02-14T12:37:15.565Z,56.24
2023-02-14T12:38:27.058Z,54.79
2023-02-14T12:39:50.168Z,55.12
2023-02-14T12:41:08.779Z,53.68
2023-02-14T12:42:33.006Z,54.17
2023-02-14T12:43:59.324Z,54.50
2023-02-14T12:45:11.176Z,54.69
2023-02-14T12:46:54.198Z,55.82
2023-02-14T12:48:20.159Z,56.31
2023-02-14T12:49:49.944Z,56.17
2023-02-14T12:51:09.736Z,56.05
2023-02-14T12:52:37.897Z,55.21
2023-02-14T12:54:17.920Z,55.73
2023-02-14T12:55:50.656Z,54.81
2023-02-14T12:57:14.666Z,54.67
2023-02-14T12:58:39.250Z,54.01
2023-02-14T13:00:04.906Z,55.20
2023-02-14T13:01:38.538Z,55.46
2023-02-14T13:03:14.267Z,56.01
2023-02-14T13:04:56.003Z,56.68
2023-02-14T13:06:13.494Z,56.47
2023-02-14T13:07:30.930Z,57.80
2023-02-14T13:09:01.542Z,57.39
2023-02-14T13:10:21.094Z,56.54
2023-02-14T13:11:36.149Z,55.67
2023-02-14T13:12:53.501Z,56.30
2023-02-14T13:14:04.757Z,55.71
2023-02-14T13:15:23.691Z,55.69
2023-02-14T13:16:36.540Z,54.14
2023-02-14T13:17:50.107Z,54.65
2023-02-14T13:19:16.850Z,54.97
2023-02-14T13:20:47.674Z,54.30
2023-02-14T13:22:10.553Z,55.20
2023-02-14T13:23:34.981Z,55.03
2023-02-14T13:24:52.441Z,53.91
2023-02-14T13:26:12.472Z,53.64
2023-02-14T13:27:31.053Z,53.66
2023-02-14T13:28:39.833Z,55.54
2023-02-14T13:29:59.099Z,54.69
2023-02-14T13:31:07.174Z,54.49
2023-02-14T13:32:19.449Z,55.29
2023-02-14T13:33:43.270Z,54.10
2023-02-14T13:35:09.254Z,54.20
2023-02-14T13:36:32.049Z,54.19
2023-02-14T13:37:41.852Z,55.76
2023-02-14T13:38:50.940Z,54.57
2023-02-14T13:40:04.595Z,52.74
2023-02-14T13:41:39.190Z,53.13
2023-02-14T13:43:23.091Z,52.89
2023-02-14T13:44:58.720Z,53.57
2023-02-14T13:46:19.351Z,53.82
2023-02-14T13:47:36.585Z,53.73
2023-02-14T13:49:04.937Z,53.99
2023-02-14T13:50:29.294Z,55.39
2023-02-14T13:53:33.963Z,54.08
2023-02-14T13:55:08.397Z,54.67
2023-02-14T13:56:59.660Z,54.83
2023-02-14T13:58:32.169Z,53.64
2023-02-14T13:59:50.740Z,53.54
2023-02-14T14:01:36.933Z,53.67
2023-02-14T14:02:53.082Z,55.02
2023-02-14T14:04:11.257Z,54.72
2023-02-14T14:06:00.522Z,55.07
2023-02-14T14:07:35.831Z,55.02
2023-02-14T14:11:10.424Z,55.31
2023-02-14T14:12:46.609Z,55.29
2023-02-14T14:14:25.793Z,56.47
2023-02-14T14:15:39.966Z,55.24
2023-02-14T14:17:09.410Z,55.75
2023-02-14T14:18:56.338Z,55.61
2023-02-14T14:20:04.150Z,55.22
2023-02-14T14:21:19.374Z,55.47
2023-02-14T14:22:22.505Z,55.24
2023-02-14T14:23:38.786Z,55.36
2023-02-14T14:24:53.683Z,56.24
2023-02-14T14:26:01.777Z,55.05
2023-02-14T14:27:13.836Z,55.60
2023-02-14T14:28:31.735Z,55.91
2023-02-14T14:29:46.844Z,56.71
2023-02-14T14:30:55.297Z,56.87
2023-02-14T14:32:20.978Z,56.22
2023-02-14T14:33:31.993Z,55.78
2023-02-14T14:34:54.950Z,56.18
2023-02-14T14:36:02.146Z,56.26
2023-02-14T14:37:19.306Z,56.47
2023-02-14T14:38:37.732Z,56.26
2023-02-14T14:39:55.033Z,56.55
2023-02-14T14:41:04.049Z,57.68
2023-02-14T14:42:15.450Z,57.92
2023-02-14T14:43:28.050Z,58.79
2023-02-14T14:44:37.406Z,58.25
2023-02-14T14:45:53.173Z,56.63
2023-02-14T14:47:02.200Z,56.03
2023-02-14T14:48:23.830Z,55.66
2023-02-14T14:49:28.218Z,55.21
2023-02-14T14:50:34.143Z,56.19
2023-02-14T14:51:42.338Z,56.80
2023-02-14T14:52:49.211Z,56.88
2023-02-14T14:53:56.318Z,57.41
2023-02-14T14:55:04.506Z,57.56
2023-02-14T14:56:12.872Z,57.33
2023-02-14T14:57:20.402Z,57.27
2023-02-14T14:58:38.564Z,58.07
2023-02-14T14:59:43.112Z,58.04
2023-02-14T15:00:54.001Z,58.13
2023-02-14T15:02:01.159Z,57.63
2023-02-14T15:03:09.452Z,57.96
2023-02-14T15:04:20.196Z,56.99
2023-02-14T15:05:26.796Z,58.00
2023-02-14T15:06:32.106Z,57.29